Time;durP1;ratioP1;P1;durP2;ratioP2;P2;SDS_P1;SDS_P2;PMS_P1;PMS_P2;Temp;Humidity;BMP_temperature;BMP_pressure;BME280_temperature;BME280_humidity;BME280_pressure;Samples;Min_cycle;Max_cycle;Signal;HPM_P1;HPM_P2
2021/04/02 00:02:07;;;;;;;16.95;3.03;;;2.40;99.90;;;;;;5013256;28;20030;-75
2021/04/02 00:04:33;;;;;;;19.05;4.47;;;2.40;99.90;;;;;;5013082;28;20033;-76
2021/04/02 00:06:59;;;;;;;16.48;4.13;;;2.40;99.90;;;;;;5014764;28;20041;-76
2021/04/02 00:09:24;;;;;;;9.50;3.38;;;2.50;99.90;;;;;;5014835;28;20285;-77
2021/04/02 00:11:50;;;;;;;15.55;3.28;;;2.60;99.90;;;;;;5014452;28;20083;-75
2021/04/02 00:14:15;;;;;;;8.85;3.55;;;2.70;99.90;;;;;;5014192;28;20045;-76
2021/04/02 00:16:41;;;;;;;10.38;3.28;;;2.80;99.90;;;;;;5014802;28;20052;-76
2021/04/02 00:19:06;;;;;;;14.52;3.17;;;2.80;99.90;;;;;;5014532;28;20033;-75
2021/04/02 00:21:32;;;;;;;15.52;3.60;;;2.90;99.90;;;;;;5013141;28;20394;-77
2021/04/02 00:23:57;;;;;;;17.25;3.45;;;3.10;99.90;;;;;;5014044;28;20061;-77
2021/04/02 00:26:24;;;;;;;25.58;4.18;;;3.00;99.90;;;;;;5014648;28;20040;-76
2021/04/02 00:28:52;;;;;;;14.30;4.32;;;3.00;99.90;;;;;;5014482;28;20401;-76
2021/04/02 00:31:19;;;;;;;13.30;4.40;;;3.00;99.90;;;;;;5014094;28;20021;-75
2021/04/02 00:33:45;;;;;;;15.02;3.58;;;3.10;99.90;;;;;;5013577;28;20095;-76
2021/04/02 00:36:11;;;;;;;21.95;5.35;;;3.10;99.90;;;;;;5014155;28;20429;-76
2021/04/02 00:38:36;;;;;;;17.42;4.55;;;3.10;99.90;;;;;;5012991;28;20022;-75
2021/04/02 00:41:06;;;;;;;27.17;6.07;;;3.10;99.90;;;;;;5013061;28;20080;-76
2021/04/02 00:43:36;;;;;;;25.67;5.95;;;3.10;99.90;;;;;;5014003;28;20026;-77
2021/04/02 00:46:02;;;;;;;19.55;6.07;;;3.20;99.90;;;;;;5012483;28;20030;-76
2021/04/02 00:48:29;;;;;;;32.90;5.82;;;3.30;99.90;;;;;;5013903;28;20494;-77
2021/04/02 00:51:05;;;;;;;21.20;5.75;;;3.30;99.90;;;;;;5012214;28;20499;-76
2021/04/02 00:53:33;;;;;;;26.58;5.50;;;3.30;99.90;;;;;;5013839;28;20018;-76
2021/04/02 00:56:00;;;;;;;26.35;5.07;;;3.10;99.90;;;;;;5013470;28;20395;-77
2021/04/02 00:58:27;;;;;;;14.73;4.85;;;3.10;99.90;;;;;;5012975;28;20025;-76
2021/04/02 01:00:53;;;;;;;27.73;4.97;;;3.00;99.90;;;;;;5013722;28;20022;-76
2021/04/02 01:03:20;;;;;;;23.83;5.90;;;2.70;99.90;;;;;;5013619;28;20474;-76
2021/04/02 01:05:47;;;;;;;33.28;6.05;;;2.60;99.90;;;;;;4994491;28;20031;-76
2021/04/02 01:08:17;;;;;;;32.75;5.97;;;2.50;99.90;;;;;;5013715;28;20025;-76
2021/04/02 01:10:43;;;;;;;24.77;6.13;;;2.60;99.90;;;;;;5013603;28;20409;-76
2021/04/02 01:13:14;;;;;;;24.75;6.40;;;2.60;99.90;;;;;;5012826;28;20486;-76
2021/04/02 01:15:43;;;;;;;35.08;6.40;;;2.70;99.90;;;;;;5011824;28;20121;-76
2021/04/02 01:18:17;;;;;;;33.63;6.47;;;2.80;99.90;;;;;;5013500;28;20076;-76
2021/04/02 01:20:44;;;;;;;;;;;2.80;99.90;;;;;;5013286;28;20057;-76
2021/04/02 01:23:14;;;;;;;34.17;5.88;;;2.80;99.90;;;;;;5013533;28;19906;-76
2021/04/02 01:26:13;;;;;;;28.65;5.57;;;2.90;99.90;;;;;;5012692;28;20030;-76
2021/04/02 01:29:03;;;;;;;33.97;5.40;;;3.00;99.90;;;;;;4974529;28;20034;-76
2021/04/02 01:31:29;;;;;;;31.20;4.90;;;3.10;99.90;;;;;;4999080;28;20109;-76
2021/04/02 01:33:56;;;;;;;37.08;4.60;;;3.20;99.90;;;;;;5011312;28;20399;-76
2021/04/02 01:36:23;;;;;;;20.40;4.57;;;3.30;99.90;;;;;;5011282;28;20109;-76
2021/04/02 01:38:50;;;;;;;34.80;5.30;;;3.30;99.90;;;;;;5013077;28;20065;-76
2021/04/02 01:41:19;;;;;;;31.83;5.50;;;3.10;99.90;;;;;;5011623;28;20084;-76
2021/04/02 01:43:51;;;;;;;48.40;5.15;;;3.10;99.90;;;;;;5012289;28;20030;-77
2021/04/02 01:46:18;;;;;;;33.85;4.78;;;3.00;99.90;;;;;;5013013;28;20034;-76
2021/04/02 01:48:46;;;;;;;31.25;5.82;;;2.90;99.90;;;;;;5012652;28;20125;-76
2021/04/02 01:51:13;;;;;;;18.13;5.13;;;2.80;99.90;;;;;;5012493;28;20026;-76
2021/04/02 01:53:43;;;;;;;50.63;6.50;;;2.70;99.90;;;;;;5012264;28;20054;-76
2021/04/02 01:56:09;;;;;;;38.53;5.72;;;2.60;99.90;;;;;;5011644;28;20026;-76
2021/04/02 01:58:39;;;;;;;29.73;5.68;;;2.60;99.90;;;;;;5012585;28;20566;-77
2021/04/02 02:01:05;;;;;;;27.15;5.07;;;2.60;99.90;;;;;;5012507;28;20022;-76
2021/04/02 02:03:32;;;;;;;37.20;5.10;;;2.60;99.90;;;;;;5012767;28;20018;-76
2021/04/02 02:06:01;;;;;;;26.58;3.85;;;2.60;99.90;;;;;;5011802;28;20390;-77
2021/04/02 02:08:26;;;;;;;33.03;5.72;;;2.50;99.90;;;;;;5011286;28;20509;-76
2021/04/02 02:10:59;;;;;;;35.38;5.53;;;2.40;99.90;;;;;;5012602;28;20088;-76
2021/04/02 02:13:26;;;;;;;38.50;5.43;;;2.40;99.90;;;;;;5012050;28;20026;-76
2021/04/02 02:15:53;;;;;;;45.20;4.60;;;2.20;99.90;;;;;;5011447;28;20026;-76
2021/04/02 02:18:24;;;;;;;31.85;5.40;;;2.20;99.90;;;;;;5012441;28;20025;-77
2021/04/02 02:20:50;;;;;;;48.63;6.35;;;2.30;99.90;;;;;;5011989;28;20029;-77
2021/04/02 02:23:16;;;;;;;36.47;5.28;;;2.30;99.90;;;;;;5012305;28;20423;-76
2021/04/02 02:25:42;;;;;;;24.48;5.60;;;2.30;99.90;;;;;;5010522;28;20118;-76
2021/04/02 02:28:08;;;;;;;36.13;4.97;;;2.40;99.90;;;;;;5011976;28;20036;-77
2021/04/02 02:30:35;;;;;;;42.50;4.95;;;2.40;99.90;;;;;;5012343;28;20025;-77
2021/04/02 02:33:01;;;;;;;38.22;4.15;;;2.40;99.90;;;;;;5011972;28;20034;-77
2021/04/02 02:35:27;;;;;;;32.10;5.65;;;2.50;99.90;;;;;;5011367;28;20026;-76
2021/04/02 02:37:56;;;;;;;33.88;5.50;;;2.60;99.90;;;;;;5010246;28;20080;-77
2021/04/02 02:40:25;;;;;;;48.97;6.57;;;2.70;99.90;;;;;;5011112;28;20080;-76
2021/04/02 02:42:53;;;;;;;31.17;4.10;;;2.80;99.90;;;;;;5011185;28;20140;-76
2021/04/02 02:45:19;;;;;;;30.05;5.20;;;2.80;99.90;;;;;;5010191;28;20465;-76
2021/04/02 02:47:45;;;;;;;29.75;5.25;;;2.90;99.90;;;;;;5010597;28;20034;-76
2021/04/02 02:50:15;;;;;;;45.92;5.43;;;3.00;99.90;;;;;;5010421;28;20029;-76
2021/04/02 02:52:41;;;;;;;30.33;4.55;;;3.00;99.90;;;;;;5011431;28;20068;-76
2021/04/02 02:55:09;;;;;;;29.92;5.50;;;3.10;99.90;;;;;;5011239;28;20026;-76
2021/04/02 02:57:36;;;;;;;40.80;4.70;;;3.10;99.90;;;;;;5010728;28;20022;-75
2021/04/02 03:00:08;;;;;;;37.28;4.22;;;3.10;99.90;;;;;;5011859;28;20022;-76
2021/04/02 03:02:35;;;;;;;40.97;5.28;;;3.10;99.90;;;;;;5010376;28;20069;-76
2021/04/02 03:05:01;;;;;;;30.33;4.30;;;3.10;99.90;;;;;;5010903;28;20033;-76
2021/04/02 03:07:29;;;;;;;35.40;5.07;;;3.10;99.90;;;;;;5011422;28;20068;-76
2021/04/02 03:09:56;;;;;;;32.40;4.68;;;3.10;99.90;;;;;;5011636;28;20045;-76
2021/04/02 03:12:22;;;;;;;37.30;5.30;;;3.10;99.90;;;;;;5011516;28;20075;-75
2021/04/02 03:14:49;;;;;;;44.72;4.00;;;3.20;99.90;;;;;;5011170;28;20105;-75
2021/04/02 03:17:15;;;;;;;28.33;5.32;;;3.20;99.90;;;;;;5011691;28;20034;-75
2021/04/02 03:19:42;;;;;;;36.60;4.20;;;3.20;99.90;;;;;;5011668;28;20034;-75
2021/04/02 03:22:09;;;;;;;31.80;3.90;;;3.20;99.90;;;;;;5009809;28;20026;-76
2021/04/02 03:24:40;;;;;;;30.38;4.63;;;3.10;99.90;;;;;;5011087;28;20092;-75
2021/04/02 03:27:07;;;;;;;40.80;4.38;;;3.30;99.90;;;;;;5012951;28;20096;-75
2021/04/02 03:29:34;;;;;;;30.33;4.13;;;3.30;99.90;;;;;;5015486;28;20040;-75
2021/04/02 03:32:03;;;;;;;19.95;3.75;;;3.40;99.90;;;;;;5015329;28;20022;-75
2021/04/02 03:34:31;;;;;;;37.42;6.13;;;3.40;99.90;;;;;;5014805;28;20032;-75
2021/04/02 03:36:58;;;;;;;48.15;4.38;;;3.40;99.90;;;;;;5014952;28;20461;-75
2021/04/02 03:39:29;;;;;;;29.30;3.50;;;3.50;99.90;;;;;;5014132;28;20037;-76
2021/04/02 03:41:57;;;;;;;35.00;3.72;;;3.60;99.90;;;;;;5014622;28;20026;-75
2021/04/02 03:44:29;;;;;;;38.35;4.13;;;3.60;99.90;;;;;;5013494;28;20052;-75
2021/04/02 03:46:56;;;;;;;40.08;6.85;;;3.60;99.90;;;;;;5015467;28;20025;-75
2021/04/02 03:49:26;;;;;;;24.05;3.60;;;3.70;99.90;;;;;;5013829;28;20029;-75
2021/04/02 03:51:56;;;;;;;40.30;4.57;;;3.80;99.90;;;;;;5013763;28;20026;-75
2021/04/02 03:54:25;;;;;;;25.98;4.32;;;3.90;99.90;;;;;;5013013;28;20084;-75
2021/04/02 03:56:53;;;;;;;42.05;5.43;;;4.00;99.90;;;;;;5013840;28;20513;-75
2021/04/02 03:59:23;;;;;;;40.45;5.15;;;4.10;99.90;;;;;;5012503;28;20042;-76
2021/04/02 04:01:50;;;;;;;43.22;5.93;;;4.20;99.90;;;;;;5013562;28;20068;-76
2021/04/02 04:04:17;;;;;;;19.92;3.63;;;4.30;99.90;;;;;;5011947;28;20112;-75
2021/04/02 04:06:46;;;;;;;34.80;4.10;;;4.30;99.90;;;;;;5013239;28;20033;-76
2021/04/02 04:09:14;;;;;;;36.83;4.78;;;4.30;99.90;;;;;;5013549;28;20060;-76
2021/04/02 04:11:41;;;;;;;32.47;5.22;;;4.40;99.90;;;;;;5013308;28;20022;-75
2021/04/02 04:14:08;;;;;;;27.13;4.28;;;4.30;99.90;;;;;;5013030;28;20509;-75
2021/04/02 04:16:37;;;;;;;30.27;4.18;;;4.40;99.90;;;;;;5013539;28;20427;-76
2021/04/02 04:19:04;;;;;;;28.05;4.25;;;4.40;99.90;;;;;;5012217;28;20029;-75
2021/04/02 04:21:40;;;;;;;35.58;4.47;;;4.40;99.90;;;;;;5013065;28;20661;-76
2021/04/02 04:24:07;;;;;;;35.83;5.28;;;4.40;99.90;;;;;;5011591;28;20026;-75
2021/04/02 04:26:34;;;;;;;33.08;5.43;;;4.50;99.90;;;;;;5013455;28;20030;-75
2021/04/02 04:29:01;;;;;;;40.97;5.82;;;4.50;99.90;;;;;;5013190;28;20037;-76
2021/04/02 04:31:28;;;;;;;50.85;5.50;;;4.60;99.90;;;;;;5013029;28;20022;-76
2021/04/02 04:33:55;;;;;;;49.58;5.63;;;4.50;99.90;;;;;;5011339;28;20048;-76
2021/04/02 04:36:22;;;;;;;45.40;6.15;;;4.60;99.90;;;;;;5012815;28;20025;-75
2021/04/02 04:38:52;;;;;;;27.67;5.25;;;4.60;99.90;;;;;;5012882;28;20026;-75
2021/04/02 04:41:19;;;;;;;65.30;5.95;;;4.60;99.90;;;;;;5012830;28;20026;-75
2021/04/02 04:43:46;;;;;;;59.30;6.38;;;4.70;99.90;;;;;;5012149;28;20044;-76
2021/04/02 04:46:11;;;;;;;43.05;5.70;;;4.60;99.90;;;;;;5013145;28;20018;-76
2021/04/02 04:48:38;;;;;;;26.33;4.70;;;4.70;99.90;;;;;;4995364;28;522874;-75
2021/04/02 04:51:05;;;;;;;32.65;5.78;;;4.70;99.90;;;;;;5013818;28;20490;-75
2021/04/02 04:53:34;;;;;;;41.22;5.70;;;4.70;99.90;;;;;;5013900;28;20029;-75
2021/04/02 04:56:03;;;;;;;44.97;5.40;;;4.60;99.90;;;;;;5012158;28;20045;-76
2021/04/02 04:58:32;;;;;;;46.15;5.05;;;4.60;99.90;;;;;;5012675;28;20018;-75
2021/04/02 05:01:01;;;;;;;41.13;6.20;;;4.70;99.90;;;;;;5014010;28;20033;-76
2021/04/02 05:03:27;;;;;;;44.25;7.32;;;4.70;99.90;;;;;;5013575;28;20037;-75
2021/04/02 05:05:59;;;;;;;36.80;5.18;;;4.70;99.90;;;;;;5013064;28;20034;-76
2021/04/02 05:08:29;;;;;;;32.08;5.03;;;4.80;99.90;;;;;;5013801;28;20156;-75
2021/04/02 05:10:56;;;;;;;33.83;4.85;;;4.80;99.90;;;;;;5013861;28;20026;-75
2021/04/02 05:13:24;;;;;;;40.05;3.95;;;4.80;99.90;;;;;;5011898;28;20069;-75
2021/04/02 05:15:52;;;;;;;36.80;6.03;;;4.80;99.90;;;;;;5011800;28;20029;-75
2021/04/02 05:18:18;;;;;;;38.22;5.93;;;4.80;99.90;;;;;;5013466;28;20459;-75
2021/04/02 05:20:45;;;;;;;47.95;6.18;;;4.90;99.90;;;;;;5013360;28;20413;-76
2021/04/02 05:23:13;;;;;;;57.55;7.28;;;4.90;99.90;;;;;;5013456;28;20052;-75
2021/04/02 05:25:39;;;;;;;39.08;5.88;;;4.90;99.90;;;;;;5012889;28;20054;-76
2021/04/02 05:28:05;;;;;;;51.00;6.00;;;4.90;99.90;;;;;;5013360;28;20056;-75
2021/04/02 05:30:31;;;;;;;39.67;5.40;;;5.00;99.90;;;;;;5012126;28;20459;-76
2021/04/02 05:32:57;;;;;;;33.38;5.03;;;5.00;99.90;;;;;;5013105;28;20093;-75
2021/04/02 05:35:23;;;;;;;48.85;5.13;;;5.00;99.90;;;;;;5011481;28;20116;-76
2021/04/02 05:37:49;;;;;;;39.25;5.93;;;5.00;99.90;;;;;;5012819;28;20483;-76
2021/04/02 05:40:16;;;;;;;40.38;5.80;;;5.00;99.90;;;;;;5011992;28;20076;-76
2021/04/02 05:42:50;;;;;;;32.17;5.45;;;5.10;99.90;;;;;;5012928;28;20030;-75
2021/04/02 05:45:16;;;;;;;;;;;5.10;99.90;;;;;;5013001;28;20034;-76
2021/04/02 05:47:42;;;;;;;36.55;4.93;;;5.10;99.90;;;;;;5011549;28;19910;-76
2021/04/02 05:50:09;;;;;;;40.83;5.65;;;5.20;99.90;;;;;;5012179;28;20041;-76
2021/04/02 05:52:37;;;;;;;40.20;5.78;;;5.20;99.90;;;;;;5012574;28;20026;-76
2021/04/02 05:55:04;;;;;;;45.15;6.15;;;5.20;99.90;;;;;;4992802;28;20018;-76
2021/04/02 05:57:30;;;;;;;38.78;6.90;;;5.20;99.90;;;;;;4993197;28;20440;-75
2021/04/02 05:59:56;;;;;;;37.83;5.68;;;5.30;99.90;;;;;;5003067;28;20057;-76
2021/04/02 06:02:22;;;;;;;43.25;6.68;;;5.30;99.90;;;;;;5012899;28;20030;-76
2021/04/02 06:04:48;;;;;;;43.15;7.00;;;5.40;99.90;;;;;;5010823;28;20033;-76
2021/04/02 06:07:13;;;;;;;34.80;7.43;;;5.30;99.90;;;;;;5010800;28;20124;-76
2021/04/02 06:09:39;;;;;;;36.65;5.43;;;5.40;99.90;;;;;;5011376;28;20141;-75
2021/04/02 06:12:04;;;;;;;42.45;5.80;;;5.40;99.90;;;;;;5012652;28;20064;-76
2021/04/02 06:14:30;;;;;;;31.10;6.68;;;5.40;99.90;;;;;;5012020;28;20024;-75
2021/04/02 06:16:56;;;;;;;33.85;6.03;;;5.50;99.90;;;;;;5012270;28;20124;-75
2021/04/02 06:19:22;;;;;;;27.00;6.03;;;5.50;99.90;;;;;;5012325;28;20041;-76
2021/04/02 06:21:50;;;;;;;31.42;5.72;;;5.50;99.90;;;;;;5011061;28;20124;-76
2021/04/02 06:24:17;;;;;;;26.15;6.22;;;5.60;99.90;;;;;;5010581;28;20029;-75
2021/04/02 06:27:02;;;;;;;47.53;5.40;;;5.60;99.90;;;;;;5012082;28;20036;-75
2021/04/02 06:29:29;;;;;;;42.60;6.20;;;5.70;99.90;;;;;;5012232;28;20026;-76
2021/04/02 06:31:56;;;;;;;29.23;6.28;;;5.70;99.90;;;;;;5011110;28;20101;-75
2021/04/02 06:34:25;;;;;;;40.85;5.65;;;5.70;99.90;;;;;;5011599;28;20022;-75
2021/04/02 06:36:50;;;;;;;38.88;6.78;;;5.70;99.90;;;;;;5010303;28;20029;-76
2021/04/02 06:39:16;;;;;;;34.20;6.03;;;5.80;99.90;;;;;;5012132;28;20034;-76
2021/04/02 06:41:42;;;;;;;23.48;6.18;;;5.80;99.90;;;;;;5012198;28;20033;-75
2021/04/02 06:44:11;;;;;;;28.42;6.93;;;5.90;99.90;;;;;;5010305;28;20465;-76
2021/04/02 06:46:39;;;;;;;45.40;7.88;;;5.90;99.90;;;;;;5011719;28;20029;-75
2021/04/02 06:49:15;;;;;;;41.53;7.03;;;5.90;99.90;;;;;;5012286;28;20040;-76
2021/04/02 06:51:42;;;;;;;45.28;6.95;;;5.90;99.90;;;;;;5010575;28;20382;-76
2021/04/02 06:54:08;;;;;;;47.03;7.97;;;6.00;99.90;;;;;;5011396;28;20105;-75
2021/04/02 06:56:35;;;;;;;44.13;6.78;;;6.00;99.90;;;;;;5011603;28;20053;-76
2021/04/02 06:59:02;;;;;;;41.92;8.30;;;6.00;99.90;;;;;;5009634;28;20030;-75
2021/04/02 07:01:31;;;;;;;23.60;5.75;;;6.00;99.90;;;;;;5010068;28;20026;-76
2021/04/02 07:03:58;;;;;;;30.20;6.00;;;6.00;99.90;;;;;;5011064;28;20088;-75
2021/04/02 07:06:25;;;;;;;41.88;7.95;;;6.10;99.90;;;;;;5011348;28;20026;-75
2021/04/02 07:08:51;;;;;;;28.83;5.35;;;6.10;99.90;;;;;;5011506;28;20026;-75
2021/04/02 07:11:18;;;;;;;32.55;6.68;;;6.10;99.90;;;;;;5011652;28;20034;-76
2021/04/02 07:13:53;;;;;;;31.60;6.55;;;6.10;99.90;;;;;;5011007;28;20025;-75
2021/04/02 07:16:20;;;;;;;40.55;7.35;;;6.10;99.90;;;;;;5011204;28;20053;-76
2021/04/02 07:18:46;;;;;;;30.27;5.93;;;6.20;99.90;;;;;;5010266;28;20026;-75
2021/04/02 07:21:13;;;;;;;30.15;6.60;;;6.10;99.90;;;;;;5010877;28;20477;-76
2021/04/02 07:23:40;;;;;;;37.75;6.55;;;6.10;99.90;;;;;;5011154;28;20156;-76
2021/04/02 07:26:07;;;;;;;31.15;5.25;;;6.10;99.90;;;;;;5010072;28;20033;-76
2021/04/02 07:28:33;;;;;;;46.08;7.78;;;6.10;99.90;;;;;;5009922;28;20025;-75
2021/04/02 07:30:59;;;;;;;27.52;5.32;;;6.10;99.90;;;;;;5011525;28;20033;-76
2021/04/02 07:33:27;;;;;;;31.63;5.97;;;6.10;99.90;;;;;;5010290;28;20504;-76
2021/04/02 07:35:58;;;;;;;41.13;6.30;;;6.10;99.90;;;;;;5010576;28;20083;-76
2021/04/02 07:38:29;;;;;;;41.15;6.90;;;6.20;99.90;;;;;;5009863;28;20026;-76
2021/04/02 07:40:55;;;;;;;28.83;5.70;;;6.20;99.90;;;;;;5011480;28;20100;-76
2021/04/02 07:43:21;;;;;;;46.67;6.07;;;6.20;99.90;;;;;;5010155;28;20109;-77
2021/04/02 07:45:52;;;;;;;42.45;5.95;;;6.20;99.90;;;;;;5010814;28;20030;-76
2021/04/02 07:48:18;;;;;;;34.95;5.95;;;6.20;99.90;;;;;;5010802;28;20077;-77
2021/04/02 07:50:56;;;;;;;31.85;5.45;;;6.30;99.90;;;;;;5009769;28;20423;-76
2021/04/02 07:53:24;;;;;;;29.83;5.50;;;6.20;99.90;;;;;;5010079;28;20018;-76
2021/04/02 07:56:06;;;;;;;47.13;6.05;;;6.30;99.90;;;;;;5010603;28;20030;-77
2021/04/02 07:58:33;;;;;;;50.40;6.13;;;6.30;99.90;;;;;;5011001;28;20030;-76
2021/04/02 08:01:00;;;;;;;31.90;5.90;;;6.40;99.90;;;;;;5009602;28;20030;-76
2021/04/02 08:03:29;;;;;;;53.58;6.68;;;6.40;99.90;;;;;;5009966;28;20038;-76
2021/04/02 08:05:58;;;;;;;30.85;4.60;;;6.50;99.90;;;;;;5008431;28;20121;-77
2021/04/02 08:08:25;;;;;;;35.05;4.75;;;6.50;99.90;;;;;;5009940;28;20036;-76
2021/04/02 08:11:14;;;;;;;24.75;4.88;;;6.50;99.90;;;;;;5011010;28;20025;-76
2021/04/02 08:13:51;;;;;;;30.20;4.95;;;6.60;99.90;;;;;;5011734;28;20398;-77
2021/04/02 08:16:34;;;;;;;30.00;3.88;;;6.70;99.90;;;;;;5014526;28;20026;-77
2021/04/02 08:19:10;;;;;;;29.15;5.20;;;6.80;99.90;;;;;;5014543;28;20079;-77
2021/04/02 08:21:37;;;;;;;24.55;4.93;;;6.80;99.90;;;;;;5013587;28;20026;-76
2021/04/02 08:24:05;;;;;;;23.98;4.40;;;6.80;99.90;;;;;;5013886;28;20486;-76
2021/04/02 08:26:32;;;;;;;32.47;4.28;;;6.80;99.90;;;;;;5014206;28;20033;-75
2021/04/02 08:28:59;;;;;;;25.52;4.40;;;6.80;99.90;;;;;;5012848;28;20022;-77
2021/04/02 08:31:25;;;;;;;39.08;4.50;;;6.80;99.90;;;;;;5014398;28;20025;-76
2021/04/02 08:33:55;;;;;;;37.05;5.25;;;6.70;99.90;;;;;;5013836;28;20022;-76
2021/04/02 08:36:22;;;;;;;25.02;4.43;;;6.80;99.90;;;;;;5013532;28;20026;-77
2021/04/02 08:38:49;;;;;;;28.73;3.92;;;6.80;99.90;;;;;;5014368;28;20028;-78
2021/04/02 08:41:19;;;;;;;33.78;4.38;;;7.00;99.90;;;;;;5013209;28;20044;-75
2021/04/02 08:43:44;;;;;;;25.98;4.30;;;7.00;99.90;;;;;;5011033;28;20109;-76
2021/04/02 08:46:10;;;;;;;29.13;4.32;;;7.00;99.90;;;;;;5014232;28;20473;-76
2021/04/02 08:48:37;;;;;;;32.38;4.40;;;6.80;99.90;;;;;;5013966;28;20057;-75
2021/04/02 08:51:02;;;;;;;31.48;5.63;;;6.90;99.90;;;;;;5013570;28;20025;-76
2021/04/02 08:53:39;;;;;;;26.58;5.18;;;6.90;99.90;;;;;;5012703;28;20072;-76
2021/04/02 08:56:06;;;;;;;24.90;4.30;;;6.90;99.90;;;;;;5012720;28;20113;-76
2021/04/02 08:58:33;;;;;;;27.05;4.35;;;6.90;99.90;;;;;;5008310;28;20071;-76
2021/04/02 09:00:59;;;;;;;21.13;4.40;;;6.90;99.90;;;;;;5009749;28;20029;-76
2021/04/02 09:03:24;;;;;;;33.17;4.63;;;6.90;99.90;;;;;;5009365;28;20030;-76
2021/04/02 09:05:50;;;;;;;23.30;4.53;;;6.80;99.90;;;;;;5007256;28;20037;-76
2021/04/02 09:08:19;;;;;;;29.48;4.93;;;6.80;99.90;;;;;;5010516;28;20034;-75
2021/04/02 09:10:46;;;;;;;42.45;5.22;;;6.80;99.90;;;;;;5013800;28;20101;-75
2021/04/02 09:13:12;;;;;;;31.00;4.30;;;6.90;99.90;;;;;;5013296;28;20371;-75
2021/04/02 09:15:38;;;;;;;35.50;5.30;;;7.00;99.90;;;;;;5013034;28;20080;-76
2021/04/02 09:18:28;;;;;;;46.22;6.70;;;7.00;99.90;;;;;;5013537;28;20542;-75
2021/04/02 09:20:55;;;;;;;28.10;4.53;;;7.00;99.90;;;;;;5013393;28;20057;-75
2021/04/02 09:23:22;;;;;;;35.65;4.75;;;7.00;99.90;;;;;;5012284;28;20031;-75
2021/04/02 09:25:49;;;;;;;34.85;5.60;;;6.90;99.90;;;;;;5011676;28;20022;-76
2021/04/02 09:28:21;;;;;;;40.70;5.10;;;6.90;99.90;;;;;;5013417;28;20032;-75
2021/04/02 09:30:47;;;;;;;35.35;4.47;;;7.10;99.90;;;;;;5013371;28;20405;-77
2021/04/02 09:33:18;;;;;;;33.05;5.55;;;7.10;99.90;;;;;;5011608;28;20030;-76
2021/04/02 09:35:44;;;;;;;35.17;4.57;;;7.20;99.90;;;;;;5011178;28;20395;-76
2021/04/02 09:38:09;;;;;;;29.00;4.47;;;7.10;99.90;;;;;;5012080;28;20056;-75
2021/04/02 09:40:35;;;;;;;31.13;4.50;;;7.10;99.90;;;;;;5013174;28;20145;-75
2021/04/02 09:43:03;;;;;;;27.20;3.85;;;7.10;99.90;;;;;;5011195;28;20121;-75
2021/04/02 09:45:28;;;;;;;25.85;5.15;;;7.10;99.90;;;;;;5011241;28;20141;-75
2021/04/02 09:47:54;;;;;;;23.95;3.85;;;7.20;99.90;;;;;;5012694;28;20113;-75
2021/04/02 09:50:20;;;;;;;32.00;4.65;;;7.20;99.90;;;;;;5013086;28;20022;-76
2021/04/02 09:52:46;;;;;;;41.38;4.28;;;7.30;99.90;;;;;;5012234;28;20076;-76
2021/04/02 09:55:13;;;;;;;26.33;4.22;;;7.20;99.90;;;;;;5012206;28;20029;-75
2021/04/02 09:57:39;;;;;;;36.80;4.63;;;7.20;99.90;;;;;;5011595;28;20630;-76
2021/04/02 10:00:11;;;;;;;27.02;6.07;;;7.20;99.90;;;;;;5011505;28;20129;-76
2021/04/02 10:02:37;;;;;;;36.58;4.00;;;7.20;99.90;;;;;;5012178;28;20084;-76
2021/04/02 10:05:04;;;;;;;33.55;4.25;;;7.30;99.90;;;;;;5011840;28;20030;-78
2021/04/02 10:07:29;;;;;;;29.33;4.30;;;7.60;99.90;;;;;;5010614;28;20113;-77
2021/04/02 10:09:55;;;;;;;33.45;4.93;;;7.70;99.90;;;;;;5011314;28;20160;-76
2021/04/02 10:12:20;;;;;;;31.73;3.95;;;7.80;99.90;;;;;;5012368;28;20026;-76
2021/04/02 10:14:47;;;;;;;29.15;3.50;;;7.60;99.90;;;;;;5010645;28;20028;-75
2021/04/02 10:17:13;;;;;;;35.00;5.03;;;7.80;99.90;;;;;;5012647;28;20025;-76
2021/04/02 10:19:39;;;;;;;36.00;4.70;;;8.00;99.90;;;;;;5012366;28;20553;-76
2021/04/02 10:22:05;;;;;;;20.00;4.43;;;8.10;99.90;;;;;;5010640;28;20030;-76
2021/04/02 10:24:30;;;;;;;34.00;4.55;;;8.20;99.90;;;;;;5011755;28;20022;-76
2021/04/02 10:26:58;;;;;;;23.90;4.75;;;8.10;99.90;;;;;;5012277;28;20168;-75
2021/04/02 10:29:24;;;;;;;23.10;3.88;;;8.10;99.90;;;;;;5011273;28;20057;-76
2021/04/02 10:31:49;;;;;;;23.50;4.50;;;7.90;99.90;;;;;;5012038;28;20034;-77
2021/04/02 10:34:15;;;;;;;21.63;3.47;;;7.80;99.90;;;;;;5010221;28;20029;-75
2021/04/02 10:36:40;;;;;;;28.63;4.53;;;7.60;99.90;;;;;;5011490;28;20037;-75
2021/04/02 10:39:06;;;;;;;17.13;2.83;;;7.40;99.90;;;;;;5010896;28;20453;-76
2021/04/02 10:41:31;;;;;;;26.10;3.88;;;7.50;99.90;;;;;;5011809;28;20040;-76
2021/04/02 10:43:57;;;;;;;30.08;4.45;;;7.40;99.90;;;;;;5011181;28;20029;-76
2021/04/02 10:46:22;;;;;;;21.17;4.20;;;7.40;99.90;;;;;;5010635;28;20036;-75
2021/04/02 10:48:48;;;;;;;30.75;4.03;;;7.30;99.90;;;;;;5010602;28;20553;-77
2021/04/02 10:51:13;;;;;;;28.58;3.70;;;7.30;99.90;;;;;;5010366;28;20030;-76
2021/04/02 10:53:39;;;;;;;29.20;3.35;;;7.30;99.90;;;;;;5011255;28;20025;-75
2021/04/02 10:56:05;;;;;;;27.35;4.47;;;7.40;99.90;;;;;;5011870;28;20049;-76
2021/04/02 10:58:32;;;;;;;29.52;4.57;;;7.60;99.90;;;;;;5011711;28;20099;-76
2021/04/02 11:00:58;;;;;;;23.20;3.90;;;7.70;99.90;;;;;;5010342;28;20030;-76
2021/04/02 11:03:24;;;;;;;26.80;3.60;;;7.80;99.90;;;;;;5011266;28;20025;-76
2021/04/02 11:05:50;;;;;;;26.48;3.90;;;7.90;99.90;;;;;;5009635;28;20113;-75
2021/04/02 11:08:16;;;;;;;35.65;4.70;;;8.10;99.90;;;;;;5010162;28;20037;-77
2021/04/02 11:10:41;;;;;;;30.58;5.20;;;8.10;99.90;;;;;;5010150;28;20030;-76
2021/04/02 11:13:07;;;;;;;32.30;3.55;;;8.20;99.90;;;;;;5011336;28;20037;-75
2021/04/02 11:15:33;;;;;;;25.70;3.47;;;8.10;99.90;;;;;;5009321;28;20022;-76
2021/04/02 11:17:58;;;;;;;36.00;4.53;;;8.10;99.90;;;;;;5010430;28;20474;-76
2021/04/02 11:20:28;;;;;;;37.08;5.13;;;8.20;99.90;;;;;;5011612;28;20037;-76
2021/04/02 11:22:54;;;;;;;31.67;5.22;;;8.00;99.90;;;;;;5011161;28;20072;-75
2021/04/02 11:25:19;;;;;;;35.28;3.97;;;8.20;99.90;;;;;;5010863;28;20042;-76
2021/04/02 11:27:45;;;;;;;27.10;4.32;;;8.20;99.90;;;;;;5011448;28;20063;-76
2021/04/02 11:30:14;;;;;;;15.85;3.22;;;8.20;99.90;;;;;;5011213;28;20029;-76
2021/04/02 11:32:40;;;;;;;32.90;5.30;;;8.30;99.90;;;;;;5011347;28;20029;-77
2021/04/02 11:35:07;;;;;;;23.50;4.05;;;8.30;99.90;;;;;;5009618;28;20594;-77
2021/04/02 11:37:33;;;;;;;26.27;4.22;;;8.40;99.90;;;;;;5009577;28;20486;-77
2021/04/02 11:39:59;;;;;;;32.30;4.40;;;8.50;99.90;;;;;;5011585;28;20030;-77
2021/04/02 11:42:24;;;;;;;34.42;4.93;;;8.50;99.90;;;;;;5009469;28;20034;-78
2021/04/02 11:44:50;;;;;;;26.10;3.70;;;8.30;99.90;;;;;;5010636;28;20034;-78
2021/04/02 11:47:15;;;;;;;34.85;4.38;;;8.30;99.90;;;;;;5011686;28;20034;-77
2021/04/02 11:49:41;;;;;;;24.38;3.80;;;8.30;99.90;;;;;;5013586;28;20033;-78
2021/04/02 11:52:07;;;;;;;24.73;4.53;;;8.50;99.90;;;;;;5014726;28;20084;-78
2021/04/02 11:54:33;;;;;;;31.42;4.03;;;8.50;99.90;;;;;;5014599;28;20030;-77
2021/04/02 11:56:59;;;;;;;22.23;4.60;;;8.60;99.90;;;;;;5014903;28;20092;-77
2021/04/02 11:59:25;;;;;;;47.25;5.68;;;8.60;99.90;;;;;;5014786;28;20487;-77
2021/04/02 12:01:50;;;;;;;24.10;4.10;;;8.50;99.90;;;;;;5013234;28;20120;-77
2021/04/02 12:04:16;;;;;;;31.02;4.88;;;8.60;99.90;;;;;;5013084;28;20774;-76
2021/04/02 12:06:42;;;;;;;36.60;4.47;;;8.50;99.90;;;;;;5014131;28;20028;-76
2021/04/02 12:09:10;;;;;;;30.38;4.60;;;8.50;99.90;;;;;;5014669;28;20025;-76
2021/04/02 12:11:36;;;;;;;27.98;4.05;;;8.70;99.90;;;;;;5013258;28;20026;-77
2021/04/02 12:14:02;;;;;;;42.45;5.38;;;8.90;99.90;;;;;;5013004;28;20041;-76
2021/04/02 12:16:27;;;;;;;29.90;4.75;;;8.80;99.90;;;;;;5014940;28;20018;-76
2021/04/02 12:18:53;;;;;;;25.55;5.57;;;8.80;99.90;;;;;;5013984;28;20018;-78
2021/04/02 12:21:19;;;;;;;37.03;5.55;;;8.80;99.90;;;;;;5012081;28;20183;-77
2021/04/02 12:23:45;;;;;;;26.63;5.60;;;9.20;99.90;;;;;;5013999;28;20391;-78
2021/04/02 12:26:10;;;;;;;21.85;5.10;;;9.30;99.90;;;;;;5013415;28;20116;-77
2021/04/02 12:28:36;;;;;;;34.55;5.38;;;9.10;99.90;;;;;;5014545;28;20034;-77
2021/04/02 12:31:02;;;;;;;42.10;6.65;;;9.00;99.90;;;;;;5014389;28;20574;-78
2021/04/02 12:33:29;;;;;;;35.00;5.15;;;9.00;99.90;;;;;;5005072;28;20033;-77
2021/04/02 12:35:55;;;;;;;45.13;5.88;;;9.10;99.90;;;;;;5009552;28;20034;-77
2021/04/02 12:38:21;;;;;;;27.38;4.95;;;9.20;99.90;;;;;;5011810;28;20026;-76
2021/04/02 12:40:47;;;;;;;26.42;5.57;;;9.20;99.90;;;;;;5013836;28;20041;-76
2021/04/02 12:43:12;;;;;;;27.85;6.40;;;9.20;99.90;;;;;;5012706;28;20084;-76
2021/04/02 12:45:38;;;;;;;27.23;5.50;;;9.30;99.90;;;;;;5012445;28;20026;-76
2021/04/02 12:48:04;;;;;;;35.88;6.53;;;9.30;99.90;;;;;;5013972;28;20040;-77
2021/04/02 12:50:30;;;;;;;34.35;6.45;;;9.20;99.90;;;;;;5013484;28;20073;-77